sensor_id;sensor_type;location;lat;lon;timestamp;temperature;humidity
16074;DHT22;8141;52.664;5.074;2023-02-28T00:01:31;17.70;52.60
16074;DHT22;8141;52.664;5.074;2023-02-28T00:04:01;17.60;52.50
16074;DHT22;8141;52.664;5.074;2023-02-28T00:06:30;17.60;52.60
16074;DHT22;8141;52.664;5.074;2023-02-28T00:08:58;17.60;52.60
16074;DHT22;8141;52.664;5.074;2023-02-28T00:11:26;17.60;52.60
16074;DHT22;8141;52.664;5.074;2023-02-28T00:13:55;17.60;52.60
16074;DHT22;8141;52.664;5.074;2023-02-28T00:16:24;17.60;52.50
16074;DHT22;8141;52.664;5.074;2023-02-28T00:18:52;17.60;52.60
16074;DHT22;8141;52.664;5.074;2023-02-28T00:21:22;17.60;52.50
16074;DHT22;8141;52.664;5.074;2023-02-28T00:23:51;17.60;52.60
16074;DHT22;8141;52.664;5.074;2023-02-28T00:26:19;17.60;52.60
16074;DHT22;8141;52.664;5.074;2023-02-28T00:28:48;17.60;52.60
16074;DHT22;8141;52.664;5.074;2023-02-28T00:31:16;17.60;52.70
16074;DHT22;8141;52.664;5.074;2023-02-28T00:33:45;17.60;52.60
16074;DHT22;8141;52.664;5.074;2023-02-28T00:36:13;17.60;52.60
16074;DHT22;8141;52.664;5.074;2023-02-28T00:38:43;17.60;52.60
16074;DHT22;8141;52.664;5.074;2023-02-28T00:41:11;17.60;52.60
16074;DHT22;8141;52.664;5.074;2023-02-28T00:43:40;17.60;52.70
16074;DHT22;8141;52.664;5.074;2023-02-28T00:46:08;17.60;52.60
16074;DHT22;8141;52.664;5.074;2023-02-28T00:48:37;17.60;52.70
16074;DHT22;8141;52.664;5.074;2023-02-28T00:51:05;17.50;52.70
16074;DHT22;8141;52.664;5.074;2023-02-28T00:53:33;17.50;52.60
16074;DHT22;8141;52.664;5.074;2023-02-28T00:56:03;17.60;52.70
16074;DHT22;8141;52.664;5.074;2023-02-28T00:58:33;17.60;52.70
16074;DHT22;8141;52.664;5.074;2023-02-28T01:01:01;17.50;52.50
16074;DHT22;8141;52.664;5.074;2023-02-28T01:03:29;17.60;52.60
16074;DHT22;8141;52.664;5.074;2023-02-28T01:05:57;17.50;52.50
16074;DHT22;8141;52.664;5.074;2023-02-28T01:08:26;17.50;52.50
16074;DHT22;8141;52.664;5.074;2023-02-28T01:10:54;17.60;52.50
16074;DHT22;8141;52.664;5.074;2023-02-28T01:13:24;17.50;52.50
16074;DHT22;8141;52.664;5.074;2023-02-28T01:15:54;17.60;52.50
16074;DHT22;8141;52.664;5.074;2023-02-28T01:18:23;17.50;52.40
16074;DHT22;8141;52.664;5.074;2023-02-28T01:20:52;17.50;52.60
16074;DHT22;8141;52.664;5.074;2023-02-28T01:23:21;17.60;52.50
16074;DHT22;8141;52.664;5.074;2023-02-28T01:25:50;17.50;52.50
16074;DHT22;8141;52.664;5.074;2023-02-28T01:28:18;17.50;52.60
16074;DHT22;8141;52.664;5.074;2023-02-28T01:30:51;17.50;52.60
16074;DHT22;8141;52.664;5.074;2023-02-28T01:33:19;17.50;52.50
16074;DHT22;8141;52.664;5.074;2023-02-28T01:35:48;17.50;52.60
16074;DHT22;8141;52.664;5.074;2023-02-28T01:38:16;17.50;52.60
16074;DHT22;8141;52.664;5.074;2023-02-28T01:40:49;17.50;52.50
16074;DHT22;8141;52.664;5.074;2023-02-28T01:43:22;17.50;52.60
16074;DHT22;8141;52.664;5.074;2023-02-28T01:45:54;17.50;52.60
16074;DHT22;8141;52.664;5.074;2023-02-28T01:48:26;17.50;52.60
16074;DHT22;8141;52.664;5.074;2023-02-28T01:50:58;17.50;52.50
16074;DHT22;8141;52.664;5.074;2023-02-28T01:53:31;17.50;52.60
16074;DHT22;8141;52.664;5.074;2023-02-28T01:56:03;17.50;52.60
16074;DHT22;8141;52.664;5.074;2023-02-28T01:58:33;17.50;52.60
16074;DHT22;8141;52.664;5.074;2023-02-28T02:01:04;17.50;52.60
16074;DHT22;8141;52.664;5.074;2023-02-28T02:03:32;17.50;53.10
16074;DHT22;8141;52.664;5.074;2023-02-28T02:06:03;17.50;52.90
16074;DHT22;8141;52.664;5.074;2023-02-28T02:08:32;17.50;52.60
16074;DHT22;8141;52.664;5.074;2023-02-28T02:11:01;17.50;52.50
16074;DHT22;8141;52.664;5.074;2023-02-28T02:14:01;17.50;52.60
16074;DHT22;8141;52.664;5.074;2023-02-28T02:16:56;17.50;52.50
16074;DHT22;8141;52.664;5.074;2023-02-28T02:20:05;17.50;52.50
16074;DHT22;8141;52.664;5.074;2023-02-28T02:23:20;17.50;52.60
16074;DHT22;8141;52.664;5.074;2023-02-28T02:26:04;17.50;52.60
16074;DHT22;8141;52.664;5.074;2023-02-28T02:32:51;17.50;52.60
16074;DHT22;8141;52.664;5.074;2023-02-28T02:35:43;17.50;52.50
16074;DHT22;8141;52.664;5.074;2023-02-28T02:38:22;17.50;52.60
16074;DHT22;8141;52.664;5.074;2023-02-28T02:41:04;17.40;52.50
16074;DHT22;8141;52.664;5.074;2023-02-28T02:43:40;17.50;52.60
16074;DHT22;8141;52.664;5.074;2023-02-28T02:46:17;17.40;52.50
16074;DHT22;8141;52.664;5.074;2023-02-28T02:48:48;17.40;52.50
16074;DHT22;8141;52.664;5.074;2023-02-28T02:51:21;17.40;52.50
16074;DHT22;8141;52.664;5.074;2023-02-28T02:53:53;17.40;52.50
16074;DHT22;8141;52.664;5.074;2023-02-28T02:56:28;17.40;52.50
16074;DHT22;8141;52.664;5.074;2023-02-28T02:59:02;17.40;52.50
16074;DHT22;8141;52.664;5.074;2023-02-28T03:01:34;17.50;52.50
16074;DHT22;8141;52.664;5.074;2023-02-28T03:04:07;17.50;52.50
16074;DHT22;8141;52.664;5.074;2023-02-28T03:06:38;17.40;52.60
16074;DHT22;8141;52.664;5.074;2023-02-28T03:09:06;17.40;52.60
16074;DHT22;8141;52.664;5.074;2023-02-28T03:11:35;17.40;52.60
16074;DHT22;8141;52.664;5.074;2023-02-28T03:14:13;17.40;52.60
16074;DHT22;8141;52.664;5.074;2023-02-28T03:20:01;17.40;52.70
16074;DHT22;8141;52.664;5.074;2023-02-28T03:22:52;17.40;52.60
16074;DHT22;8141;52.664;5.074;2023-02-28T03:25:31;17.40;52.60
16074;DHT22;8141;52.664;5.074;2023-02-28T03:28:08;17.40;52.50
16074;DHT22;8141;52.664;5.074;2023-02-28T03:30:45;17.40;52.50
16074;DHT22;8141;52.664;5.074;2023-02-28T03:33:21;17.40;52.50
16074;DHT22;8141;52.664;5.074;2023-02-28T03:35:54;17.40;52.50
16074;DHT22;8141;52.664;5.074;2023-02-28T03:38:29;17.40;52.60
16074;DHT22;8141;52.664;5.074;2023-02-28T03:41:03;17.40;52.50
16074;DHT22;8141;52.664;5.074;2023-02-28T03:43:37;17.40;52.50
16074;DHT22;8141;52.664;5.074;2023-02-28T03:46:09;17.40;52.50
16074;DHT22;8141;52.664;5.074;2023-02-28T03:48:42;17.40;52.60
16074;DHT22;8141;52.664;5.074;2023-02-28T03:51:18;17.40;52.50
16074;DHT22;8141;52.664;5.074;2023-02-28T03:53:52;17.40;52.60
16074;DHT22;8141;52.664;5.074;2023-02-28T03:56:26;17.40;52.60
16074;DHT22;8141;52.664;5.074;2023-02-28T03:58:58;17.40;52.60
16074;DHT22;8141;52.664;5.074;2023-02-28T04:01:33;17.40;52.80
16074;DHT22;8141;52.664;5.074;2023-02-28T04:04:04;17.40;52.70
16074;DHT22;8141;52.664;5.074;2023-02-28T04:06:33;17.30;52.70
16074;DHT22;8141;52.664;5.074;2023-02-28T04:09:04;17.30;52.60
16074;DHT22;8141;52.664;5.074;2023-02-28T04:11:35;17.40;52.90
16074;DHT22;8141;52.664;5.074;2023-02-28T04:14:05;17.40;53.20
16074;DHT22;8141;52.664;5.074;2023-02-28T04:16:35;17.30;52.90
16074;DHT22;8141;52.664;5.074;2023-02-28T04:19:06;17.30;52.80
16074;DHT22;8141;52.664;5.074;2023-02-28T04:21:36;17.30;52.70
16074;DHT22;8141;52.664;5.074;2023-02-28T04:24:10;17.30;52.70
16074;DHT22;8141;52.664;5.074;2023-02-28T04:26:42;17.30;52.60
16074;DHT22;8141;52.664;5.074;2023-02-28T04:29:13;17.40;52.70
16074;DHT22;8141;52.664;5.074;2023-02-28T04:31:46;17.30;52.60
16074;DHT22;8141;52.664;5.074;2023-02-28T04:34:15;17.30;52.70
16074;DHT22;8141;52.664;5.074;2023-02-28T04:36:43;17.30;52.60
16074;DHT22;8141;52.664;5.074;2023-02-28T04:39:13;17.30;52.60
16074;DHT22;8141;52.664;5.074;2023-02-28T04:41:42;17.30;52.50
16074;DHT22;8141;52.664;5.074;2023-02-28T04:44:10;17.30;52.60
16074;DHT22;8141;52.664;5.074;2023-02-28T04:46:38;17.40;52.50
16074;DHT22;8141;52.664;5.074;2023-02-28T04:49:08;17.30;52.50
16074;DHT22;8141;52.664;5.074;2023-02-28T04:51:37;17.40;52.60
16074;DHT22;8141;52.664;5.074;2023-02-28T04:54:06;17.40;52.60
16074;DHT22;8141;52.664;5.074;2023-02-28T04:56:36;17.30;52.70
16074;DHT22;8141;52.664;5.074;2023-02-28T04:59:04;17.30;52.70
16074;DHT22;8141;52.664;5.074;2023-02-28T05:01:33;17.30;52.70
16074;DHT22;8141;52.664;5.074;2023-02-28T05:04:04;17.30;52.60
16074;DHT22;8141;52.664;5.074;2023-02-28T05:06:32;17.30;52.70
16074;DHT22;8141;52.664;5.074;2023-02-28T05:09:01;17.30;52.60
16074;DHT22;8141;52.664;5.074;2023-02-28T05:11:31;17.30;52.60
16074;DHT22;8141;52.664;5.074;2023-02-28T05:14:03;17.30;52.70
16074;DHT22;8141;52.664;5.074;2023-02-28T05:16:33;17.30;52.60
16074;DHT22;8141;52.664;5.074;2023-02-28T05:19:01;17.30;53.00
16074;DHT22;8141;52.664;5.074;2023-02-28T05:21:32;17.30;52.90
16074;DHT22;8141;52.664;5.074;2023-02-28T05:24:03;17.30;53.00
16074;DHT22;8141;52.664;5.074;2023-02-28T05:26:35;17.30;53.20
16074;DHT22;8141;52.664;5.074;2023-02-28T05:29:05;17.30;53.40
16074;DHT22;8141;52.664;5.074;2023-02-28T05:31:34;17.40;53.50
16074;DHT22;8141;52.664;5.074;2023-02-28T05:34:03;17.40;53.50
16074;DHT22;8141;52.664;5.074;2023-02-28T05:36:32;17.40;53.60
16074;DHT22;8141;52.664;5.074;2023-02-28T05:39:01;17.40;53.60
16074;DHT22;8141;52.664;5.074;2023-02-28T05:41:30;17.40;53.80
16074;DHT22;8141;52.664;5.074;2023-02-28T05:43:58;17.40;53.60
16074;DHT22;8141;52.664;5.074;2023-02-28T05:46:28;17.40;53.60
16074;DHT22;8141;52.664;5.074;2023-02-28T05:48:56;17.50;53.50
16074;DHT22;8141;52.664;5.074;2023-02-28T05:51:27;17.50;53.70
16074;DHT22;8141;52.664;5.074;2023-02-28T05:53:59;17.60;53.80
16074;DHT22;8141;52.664;5.074;2023-02-28T05:56:28;17.60;53.80
16074;DHT22;8141;52.664;5.074;2023-02-28T05:58:56;17.60;53.70
16074;DHT22;8141;52.664;5.074;2023-02-28T06:01:32;17.60;53.70
16074;DHT22;8141;52.664;5.074;2023-02-28T06:04:03;17.60;53.80
16074;DHT22;8141;52.664;5.074;2023-02-28T06:06:33;17.70;53.80
16074;DHT22;8141;52.664;5.074;2023-02-28T06:09:03;17.70;53.80
16074;DHT22;8141;52.664;5.074;2023-02-28T06:11:32;17.70;53.80
16074;DHT22;8141;52.664;5.074;2023-02-28T06:14:01;17.70;53.80
16074;DHT22;8141;52.664;5.074;2023-02-28T06:16:33;17.70;53.80
16074;DHT22;8141;52.664;5.074;2023-02-28T06:19:03;17.80;53.90
16074;DHT22;8141;52.664;5.074;2023-02-28T06:21:32;17.80;54.00
16074;DHT22;8141;52.664;5.074;2023-02-28T06:24:00;17.80;54.00
16074;DHT22;8141;52.664;5.074;2023-02-28T06:26:28;17.80;53.80
16074;DHT22;8141;52.664;5.074;2023-02-28T06:28:57;17.80;53.80
16074;DHT22;8141;52.664;5.074;2023-02-28T06:31:26;17.90;53.90
16074;DHT22;8141;52.664;5.074;2023-02-28T06:33:57;17.90;53.80
16074;DHT22;8141;52.664;5.074;2023-02-28T06:36:25;17.80;53.70
16074;DHT22;8141;52.664;5.074;2023-02-28T06:38:54;17.90;53.80
16074;DHT22;8141;52.664;5.074;2023-02-28T06:41:23;17.90;53.90
16074;DHT22;8141;52.664;5.074;2023-02-28T06:43:52;17.90;54.00
16074;DHT22;8141;52.664;5.074;2023-02-28T06:46:21;18.00;54.60
16074;DHT22;8141;52.664;5.074;2023-02-28T06:48:49;18.00;54.10
16074;DHT22;8141;52.664;5.074;2023-02-28T06:51:20;18.00;54.20
16074;DHT22;8141;52.664;5.074;2023-02-28T06:53:49;17.90;54.00
16074;DHT22;8141;52.664;5.074;2023-02-28T06:56:18;18.00;54.00
16074;DHT22;8141;52.664;5.074;2023-02-28T06:58:48;18.00;54.00
16074;DHT22;8141;52.664;5.074;2023-02-28T07:01:17;18.00;54.20
16074;DHT22;8141;52.664;5.074;2023-02-28T07:03:46;18.00;54.10
16074;DHT22;8141;52.664;5.074;2023-02-28T07:06:20;18.00;54.10
16074;DHT22;8141;52.664;5.074;2023-02-28T07:08:50;18.00;53.90
16074;DHT22;8141;52.664;5.074;2023-02-28T07:11:20;18.00;54.00
16074;DHT22;8141;52.664;5.074;2023-02-28T07:13:50;18.00;54.10
16074;DHT22;8141;52.664;5.074;2023-02-28T07:16:18;18.00;54.00
16074;DHT22;8141;52.664;5.074;2023-02-28T07:18:47;18.00;54.00
16074;DHT22;8141;52.664;5.074;2023-02-28T07:21:15;18.00;54.00
16074;DHT22;8141;52.664;5.074;2023-02-28T07:23:45;18.10;54.00
16074;DHT22;8141;52.664;5.074;2023-02-28T07:26:14;18.00;54.10
16074;DHT22;8141;52.664;5.074;2023-02-28T07:28:46;18.00;54.10
16074;DHT22;8141;52.664;5.074;2023-02-28T07:31:16;18.10;54.20
16074;DHT22;8141;52.664;5.074;2023-02-28T07:33:45;18.00;54.10
16074;DHT22;8141;52.664;5.074;2023-02-28T07:36:15;18.10;54.20
16074;DHT22;8141;52.664;5.074;2023-02-28T07:38:47;18.10;54.20
16074;DHT22;8141;52.664;5.074;2023-02-28T07:41:18;18.10;54.20
16074;DHT22;8141;52.664;5.074;2023-02-28T07:43:48;18.10;54.20
16074;DHT22;8141;52.664;5.074;2023-02-28T07:46:17;18.00;54.10
16074;DHT22;8141;52.664;5.074;2023-02-28T07:48:48;18.10;54.20
16074;DHT22;8141;52.664;5.074;2023-02-28T07:51:16;18.10;54.20
16074;DHT22;8141;52.664;5.074;2023-02-28T07:53:46;18.10;54.20
16074;DHT22;8141;52.664;5.074;2023-02-28T07:56:14;18.10;54.20
16074;DHT22;8141;52.664;5.074;2023-02-28T07:58:42;18.10;54.10
16074;DHT22;8141;52.664;5.074;2023-02-28T08:01:11;18.00;53.90
16074;DHT22;8141;52.664;5.074;2023-02-28T08:03:40;18.10;54.20
16074;DHT22;8141;52.664;5.074;2023-02-28T08:06:16;18.10;54.10
16074;DHT22;8141;52.664;5.074;2023-02-28T08:08:47;18.10;54.20
16074;DHT22;8141;52.664;5.074;2023-02-28T08:11:16;18.10;54.10
16074;DHT22;8141;52.664;5.074;2023-02-28T08:13:45;18.10;54.20
16074;DHT22;8141;52.664;5.074;2023-02-28T08:16:14;18.10;54.20
16074;DHT22;8141;52.664;5.074;2023-02-28T08:18:48;18.10;54.20
16074;DHT22;8141;52.664;5.074;2023-02-28T08:21:18;18.10;54.20
16074;DHT22;8141;52.664;5.074;2023-02-28T08:23:48;18.10;54.20
16074;DHT22;8141;52.664;5.074;2023-02-28T08:26:17;18.10;54.20
16074;DHT22;8141;52.664;5.074;2023-02-28T08:28:46;18.10;54.20
16074;DHT22;8141;52.664;5.074;2023-02-28T08:31:15;18.10;54.20
16074;DHT22;8141;52.664;5.074;2023-02-28T08:33:45;18.00;54.10
16074;DHT22;8141;52.664;5.074;2023-02-28T08:36:15;18.00;54.10
16074;DHT22;8141;52.664;5.074;2023-02-28T08:38:43;18.10;54.00
16074;DHT22;8141;52.664;5.074;2023-02-28T08:41:14;18.00;54.20
16074;DHT22;8141;52.664;5.074;2023-02-28T08:43:42;18.10;54.20
16074;DHT22;8141;52.664;5.074;2023-02-28T08:46:12;18.10;54.20
16074;DHT22;8141;52.664;5.074;2023-02-28T08:48:41;18.00;54.20
16074;DHT22;8141;52.664;5.074;2023-02-28T08:51:12;18.00;54.20
16074;DHT22;8141;52.664;5.074;2023-02-28T08:53:42;18.00;54.20
16074;DHT22;8141;52.664;5.074;2023-02-28T08:56:14;18.00;54.20
16074;DHT22;8141;52.664;5.074;2023-02-28T08:58:44;18.00;54.10
16074;DHT22;8141;52.664;5.074;2023-02-28T09:01:14;18.00;54.20
16074;DHT22;8141;52.664;5.074;2023-02-28T09:03:46;18.00;54.20
16074;DHT22;8141;52.664;5.074;2023-02-28T09:06:18;18.00;54.20
16074;DHT22;8141;52.664;5.074;2023-02-28T09:08:47;18.00;54.20
16074;DHT22;8141;52.664;5.074;2023-02-28T09:11:18;18.00;54.20
16074;DHT22;8141;52.664;5.074;2023-02-28T09:13:46;18.00;54.30
16074;DHT22;8141;52.664;5.074;2023-02-28T09:16:16;18.00;54.30
16074;DHT22;8141;52.664;5.074;2023-02-28T09:18:45;18.00;54.30
16074;DHT22;8141;52.664;5.074;2023-02-28T09:21:15;18.00;54.30
16074;DHT22;8141;52.664;5.074;2023-02-28T09:23:44;18.00;54.30
16074;DHT22;8141;52.664;5.074;2023-02-28T09:26:16;18.00;54.30
16074;DHT22;8141;52.664;5.074;2023-02-28T09:28:46;18.00;54.00
16074;DHT22;8141;52.664;5.074;2023-02-28T09:31:15;17.90;53.80
16074;DHT22;8141;52.664;5.074;2023-02-28T09:33:47;17.90;54.00
16074;DHT22;8141;52.664;5.074;2023-02-28T09:36:17;18.00;54.10
16074;DHT22;8141;52.664;5.074;2023-02-28T09:38:46;17.90;54.40
16074;DHT22;8141;52.664;5.074;2023-02-28T09:41:20;17.90;54.50
16074;DHT22;8141;52.664;5.074;2023-02-28T09:43:51;18.00;54.50
16074;DHT22;8141;52.664;5.074;2023-02-28T09:46:28;17.90;54.40
16074;DHT22;8141;52.664;5.074;2023-02-28T09:49:03;18.00;54.50
16074;DHT22;8141;52.664;5.074;2023-02-28T09:51:40;18.00;54.40
16074;DHT22;8141;52.664;5.074;2023-02-28T09:54:17;18.00;54.40
16074;DHT22;8141;52.664;5.074;2023-02-28T09:56:51;18.00;54.40
16074;DHT22;8141;52.664;5.074;2023-02-28T09:59:31;18.00;54.50
16074;DHT22;8141;52.664;5.074;2023-02-28T10:02:17;18.00;54.50
16074;DHT22;8141;52.664;5.074;2023-02-28T10:04:51;18.00;54.80
16074;DHT22;8141;52.664;5.074;2023-02-28T10:07:33;18.00;54.40
16074;DHT22;8141;52.664;5.074;2023-02-28T10:10:26;18.00;54.50
16074;DHT22;8141;52.664;5.074;2023-02-28T10:13:00;18.00;54.40
16074;DHT22;8141;52.664;5.074;2023-02-28T10:15:34;18.00;54.40
16074;DHT22;8141;52.664;5.074;2023-02-28T10:18:06;18.00;54.50
16074;DHT22;8141;52.664;5.074;2023-02-28T10:20:40;18.00;54.40
16074;DHT22;8141;52.664;5.074;2023-02-28T10:23:14;18.00;54.50
16074;DHT22;8141;52.664;5.074;2023-02-28T10:25:50;18.00;54.40
16074;DHT22;8141;52.664;5.074;2023-02-28T10:28:25;18.00;54.40
16074;DHT22;8141;52.664;5.074;2023-02-28T10:30:55;18.00;54.40
16074;DHT22;8141;52.664;5.074;2023-02-28T10:33:25;18.10;54.40
16074;DHT22;8141;52.664;5.074;2023-02-28T10:35:57;18.10;54.40
16074;DHT22;8141;52.664;5.074;2023-02-28T10:38:27;18.10;54.30
16074;DHT22;8141;52.664;5.074;2023-02-28T10:41:07;18.10;54.30
16074;DHT22;8141;52.664;5.074;2023-02-28T10:43:39;18.10;54.40
16074;DHT22;8141;52.664;5.074;2023-02-28T10:46:13;18.10;54.50
16074;DHT22;8141;52.664;5.074;2023-02-28T10:49:02;18.10;54.40
16074;DHT22;8141;52.664;5.074;2023-02-28T10:51:36;18.10;54.40
16074;DHT22;8141;52.664;5.074;2023-02-28T10:54:05;18.10;54.30
16074;DHT22;8141;52.664;5.074;2023-02-28T10:56:34;18.10;54.30
16074;DHT22;8141;52.664;5.074;2023-02-28T10:59:26;18.10;54.40
16074;DHT22;8141;52.664;5.074;2023-02-28T11:01:56;18.10;54.30
16074;DHT22;8141;52.664;5.074;2023-02-28T11:04:36;18.10;54.30
16074;DHT22;8141;52.664;5.074;2023-02-28T11:07:17;18.10;54.40
16074;DHT22;8141;52.664;5.074;2023-02-28T11:09:50;18.10;54.30
16074;DHT22;8141;52.664;5.074;2023-02-28T11:12:22;18.10;54.30
16074;DHT22;8141;52.664;5.074;2023-02-28T11:14:55;18.10;54.20
16074;DHT22;8141;52.664;5.074;2023-02-28T11:17:28;18.10;54.20
16074;DHT22;8141;52.664;5.074;2023-02-28T11:19:59;18.10;54.10
16074;DHT22;8141;52.664;5.074;2023-02-28T11:22:32;18.10;53.70
16074;DHT22;8141;52.664;5.074;2023-02-28T11:25:09;18.10;54.40
16074;DHT22;8141;52.664;5.074;2023-02-28T11:27:46;18.10;54.00
16074;DHT22;8141;52.664;5.074;2023-02-28T11:30:31;18.10;54.20
16074;DHT22;8141;52.664;5.074;2023-02-28T11:33:21;18.10;54.00
16074;DHT22;8141;52.664;5.074;2023-02-28T11:35:51;18.10;54.30
16074;DHT22;8141;52.664;5.074;2023-02-28T11:38:20;18.20;54.10
16074;DHT22;8141;52.664;5.074;2023-02-28T11:41:18;18.30;54.00
16074;DHT22;8141;52.664;5.074;2023-02-28T11:44:03;18.40;53.70
16074;DHT22;8141;52.664;5.074;2023-02-28T11:46:43;18.50;53.40
16074;DHT22;8141;52.664;5.074;2023-02-28T11:49:30;18.60;53.60
16074;DHT22;8141;52.664;5.074;2023-02-28T11:52:08;18.70;53.20
16074;DHT22;8141;52.664;5.074;2023-02-28T11:55:08;18.70;53.00
16074;DHT22;8141;52.664;5.074;2023-02-28T12:00:49;18.80;52.60
16074;DHT22;8141;52.664;5.074;2023-02-28T12:03:34;18.90;52.50
16074;DHT22;8141;52.664;5.074;2023-02-28T12:06:18;18.90;52.60
16074;DHT22;8141;52.664;5.074;2023-02-28T12:09:00;19.00;52.90
16074;DHT22;8141;52.664;5.074;2023-02-28T12:11:39;19.10;52.50
16074;DHT22;8141;52.664;5.074;2023-02-28T12:17:28;19.10;52.30
16074;DHT22;8141;52.664;5.074;2023-02-28T12:20:15;19.00;51.60
16074;DHT22;8141;52.664;5.074;2023-02-28T12:22:50;19.00;52.30
16074;DHT22;8141;52.664;5.074;2023-02-28T12:25:40;19.00;51.70
16074;DHT22;8141;52.664;5.074;2023-02-28T12:28:20;19.00;52.10
16074;DHT22;8141;52.664;5.074;2023-02-28T12:30:56;19.00;52.10
16074;DHT22;8141;52.664;5.074;2023-02-28T12:33:30;19.00;52.10
16074;DHT22;8141;52.664;5.074;2023-02-28T12:36:05;19.00;52.50
16074;DHT22;8141;52.664;5.074;2023-02-28T12:38:43;19.00;52.50
16074;DHT22;8141;52.664;5.074;2023-02-28T12:41:14;19.00;52.10
16074;DHT22;8141;52.664;5.074;2023-02-28T12:43:47;19.00;52.40
16074;DHT22;8141;52.664;5.074;2023-02-28T12:46:22;19.00;52.20
16074;DHT22;8141;52.664;5.074;2023-02-28T12:48:56;19.00;52.50
16074;DHT22;8141;52.664;5.074;2023-02-28T12:51:27;19.00;53.00
16074;DHT22;8141;52.664;5.074;2023-02-28T12:54:07;19.00;53.10
16074;DHT22;8141;52.664;5.074;2023-02-28T12:56:44;19.00;53.10
16074;DHT22;8141;52.664;5.074;2023-02-28T12:59:18;19.10;53.20
16074;DHT22;8141;52.664;5.074;2023-02-28T13:02:02;19.10;53.30
16074;DHT22;8141;52.664;5.074;2023-02-28T13:04:55;19.10;53.30
16074;DHT22;8141;52.664;5.074;2023-02-28T13:07:54;19.10;53.20
16074;DHT22;8141;52.664;5.074;2023-02-28T13:10:42;19.10;53.00
16074;DHT22;8141;52.664;5.074;2023-02-28T13:13:17;19.10;53.20
16074;DHT22;8141;52.664;5.074;2023-02-28T13:16:02;19.10;53.40
16074;DHT22;8141;52.664;5.074;2023-02-28T13:18:37;19.10;53.50
16074;DHT22;8141;52.664;5.074;2023-02-28T13:21:07;19.10;53.40
16074;DHT22;8141;52.664;5.074;2023-02-28T13:23:58;19.10;53.40
16074;DHT22;8141;52.664;5.074;2023-02-28T13:27:10;19.10;53.50
16074;DHT22;8141;52.664;5.074;2023-02-28T13:29:51;19.10;53.50
16074;DHT22;8141;52.664;5.074;2023-02-28T13:32:30;19.10;53.50
16074;DHT22;8141;52.664;5.074;2023-02-28T13:35:43;19.10;53.10
16074;DHT22;8141;52.664;5.074;2023-02-28T13:38:22;19.10;53.50
16074;DHT22;8141;52.664;5.074;2023-02-28T13:40:54;19.10;53.50
16074;DHT22;8141;52.664;5.074;2023-02-28T13:44:02;19.10;53.50
16074;DHT22;8141;52.664;5.074;2023-02-28T13:46:32;19.10;53.30
16074;DHT22;8141;52.664;5.074;2023-02-28T13:49:25;19.10;53.50
16074;DHT22;8141;52.664;5.074;2023-02-28T13:52:04;19.10;53.30
16074;DHT22;8141;52.664;5.074;2023-02-28T13:54:51;19.10;53.30
16074;DHT22;8141;52.664;5.074;2023-02-28T13:57:30;19.10;53.20
16074;DHT22;8141;52.664;5.074;2023-02-28T14:00:19;19.10;53.20
16074;DHT22;8141;52.664;5.074;2023-02-28T14:03:04;19.10;53.20
16074;DHT22;8141;52.664;5.074;2023-02-28T14:05:37;19.10;53.20
16074;DHT22;8141;52.664;5.074;2023-02-28T14:08:07;19.10;53.20
16074;DHT22;8141;52.664;5.074;2023-02-28T14:10:45;19.10;53.20
16074;DHT22;8141;52.664;5.074;2023-02-28T14:13:40;19.10;53.10
16074;DHT22;8141;52.664;5.074;2023-02-28T14:16:13;19.00;53.10
16074;DHT22;8141;52.664;5.074;2023-02-28T14:18:49;19.10;53.20
16074;DHT22;8141;52.664;5.074;2023-02-28T14:21:23;19.10;53.20
16074;DHT22;8141;52.664;5.074;2023-02-28T14:24:23;19.10;53.20
16074;DHT22;8141;52.664;5.074;2023-02-28T14:27:22;19.10;53.20
16074;DHT22;8141;52.664;5.074;2023-02-28T14:33:37;19.00;53.10
16074;DHT22;8141;52.664;5.074;2023-02-28T14:36:18;19.10;53.10
16074;DHT22;8141;52.664;5.074;2023-02-28T14:38:51;19.10;53.10
16074;DHT22;8141;52.664;5.074;2023-02-28T14:41:23;19.10;53.10
16074;DHT22;8141;52.664;5.074;2023-02-28T14:43:55;19.10;53.10
16074;DHT22;8141;52.664;5.074;2023-02-28T14:46:28;19.00;53.00
16074;DHT22;8141;52.664;5.074;2023-02-28T14:49:06;19.00;53.00
16074;DHT22;8141;52.664;5.074;2023-02-28T14:51:37;19.10;53.10
16074;DHT22;8141;52.664;5.074;2023-02-28T14:54:05;19.10;53.60
16074;DHT22;8141;52.664;5.074;2023-02-28T14:56:36;19.10;52.70
16074;DHT22;8141;52.664;5.074;2023-02-28T14:59:17;19.10;52.90
16074;DHT22;8141;52.664;5.074;2023-02-28T15:01:52;19.10;52.90
16074;DHT22;8141;52.664;5.074;2023-02-28T15:04:54;19.10;52.90
16074;DHT22;8141;52.664;5.074;2023-02-28T15:07:24;19.10;52.90
16074;DHT22;8141;52.664;5.074;2023-02-28T15:10:17;19.00;52.90
16074;DHT22;8141;52.664;5.074;2023-02-28T15:12:52;19.10;52.90
16074;DHT22;8141;52.664;5.074;2023-02-28T15:15:25;19.10;52.70
16074;DHT22;8141;52.664;5.074;2023-02-28T15:18:18;19.10;52.70
16074;DHT22;8141;52.664;5.074;2023-02-28T15:20:52;19.10;52.70
16074;DHT22;8141;52.664;5.074;2023-02-28T15:23:21;19.10;52.70
16074;DHT22;8141;52.664;5.074;2023-02-28T15:25:51;19.10;52.70
16074;DHT22;8141;52.664;5.074;2023-02-28T15:28:22;19.10;52.70
16074;DHT22;8141;52.664;5.074;2023-02-28T15:30:53;19.00;52.60
16074;DHT22;8141;52.664;5.074;2023-02-28T15:33:24;19.10;52.50
16074;DHT22;8141;52.664;5.074;2023-02-28T15:36:06;19.00;52.60
16074;DHT22;8141;52.664;5.074;2023-02-28T15:38:41;19.00;52.40
16074;DHT22;8141;52.664;5.074;2023-02-28T15:41:24;19.00;52.40
16074;DHT22;8141;52.664;5.074;2023-02-28T15:47:05;19.00;52.40
16074;DHT22;8141;52.664;5.074;2023-02-28T15:49:39;19.00;52.40
16074;DHT22;8141;52.664;5.074;2023-02-28T15:52:16;19.00;52.40
16074;DHT22;8141;52.664;5.074;2023-02-28T15:54:46;19.00;52.40
16074;DHT22;8141;52.664;5.074;2023-02-28T15:57:18;18.90;52.30
16074;DHT22;8141;52.664;5.074;2023-02-28T15:59:54;18.90;52.30
16074;DHT22;8141;52.664;5.074;2023-02-28T16:02:31;18.90;52.30
16074;DHT22;8141;52.664;5.074;2023-02-28T16:05:17;18.90;52.20
16074;DHT22;8141;52.664;5.074;2023-02-28T16:07:56;18.80;52.20
16074;DHT22;8141;52.664;5.074;2023-02-28T16:10:27;18.80;52.10
16074;DHT22;8141;52.664;5.074;2023-02-28T16:12:57;18.80;52.10
16074;DHT22;8141;52.664;5.074;2023-02-28T16:15:27;18.80;52.10
16074;DHT22;8141;52.664;5.074;2023-02-28T16:17:57;18.80;52.10
16074;DHT22;8141;52.664;5.074;2023-02-28T16:20:27;18.80;52.00
16074;DHT22;8141;52.664;5.074;2023-02-28T16:22:57;18.80;52.10
16074;DHT22;8141;52.664;5.074;2023-02-28T16:25:35;18.80;52.20
16074;DHT22;8141;52.664;5.074;2023-02-28T16:28:04;18.70;52.10
16074;DHT22;8141;52.664;5.074;2023-02-28T16:30:36;18.70;52.00
16074;DHT22;8141;52.664;5.074;2023-02-28T16:33:04;18.70;52.10
16074;DHT22;8141;52.664;5.074;2023-02-28T16:35:32;18.70;52.10
16074;DHT22;8141;52.664;5.074;2023-02-28T16:38:02;18.70;52.10
16074;DHT22;8141;52.664;5.074;2023-02-28T16:40:34;18.70;52.10
16074;DHT22;8141;52.664;5.074;2023-02-28T16:43:06;18.60;52.00
16074;DHT22;8141;52.664;5.074;2023-02-28T16:45:36;18.60;52.10
16074;DHT22;8141;52.664;5.074;2023-02-28T16:48:04;18.60;52.00